createdAt,value
2019-02-17T00:02:15.809Z,4.00
2019-02-17T00:04:46.268Z,3.90
2019-02-17T00:07:16.757Z,3.90
2019-02-17T00:09:47.660Z,3.80
2019-02-17T00:12:18.150Z,3.80
2019-02-17T00:14:48.721Z,3.80
2019-02-17T00:17:19.210Z,3.70
2019-02-17T00:19:49.980Z,3.70
2019-02-17T00:22:20.462Z,3.70
2019-02-17T00:24:50.912Z,3.70
2019-02-17T00:27:21.390Z,3.70
2019-02-17T00:29:52.137Z,3.70
2019-02-17T00:32:22.618Z,3.60
2019-02-17T00:34:53.463Z,3.60
2019-02-17T00:37:23.921Z,3.60
2019-02-17T00:39:54.660Z,3.50
2019-02-17T00:42:25.201Z,3.50
2019-02-17T00:44:55.653Z,3.50
2019-02-17T00:47:26.123Z,3.50
2019-02-17T00:49:56.592Z,3.60
2019-02-17T00:52:27.073Z,3.60
2019-02-17T00:54:57.837Z,3.60
2019-02-17T00:57:28.292Z,3.60
2019-02-17T00:59:58.776Z,3.60
2019-02-17T01:02:29.241Z,3.50
2019-02-17T01:04:59.704Z,3.60
2019-02-17T01:07:30.607Z,3.50
2019-02-17T01:10:01.075Z,3.50
2019-02-17T01:12:31.556Z,3.40
2019-02-17T01:15:02.065Z,3.40
2019-02-17T01:17:32.541Z,3.50
2019-02-17T01:20:03.001Z,3.50
2019-02-17T01:22:33.821Z,3.50
2019-02-17T01:25:04.560Z,3.50
2019-02-17T01:27:35.013Z,3.50
2019-02-17T01:30:06.484Z,3.50
2019-02-17T01:32:36.981Z,3.40
2019-02-17T01:35:07.746Z,3.40
2019-02-17T01:37:38.626Z,3.40
2019-02-17T01:40:09.638Z,3.40
2019-02-17T01:42:40.110Z,3.30
2019-02-17T01:45:10.839Z,3.30
2019-02-17T01:47:42.276Z,3.30
2019-02-17T01:50:12.760Z,3.30
2019-02-17T01:52:43.201Z,3.20
2019-02-17T01:55:13.636Z,3.20
2019-02-17T01:57:44.134Z,3.20
2019-02-17T02:00:16.031Z,3.20
2019-02-17T02:02:49.679Z,3.20
2019-02-17T02:05:20.305Z,3.10
2019-02-17T02:07:51.105Z,3.10
2019-02-17T02:10:21.541Z,3.10
2019-02-17T02:12:52.021Z,3.10
2019-02-17T02:15:22.765Z,3.10
2019-02-17T02:17:53.336Z,3.00
2019-02-17T02:20:23.757Z,3.10
2019-02-17T02:22:55.070Z,3.10
2019-02-17T02:25:25.518Z,3.00
2019-02-17T02:27:56.362Z,3.00
2019-02-17T02:30:27.132Z,3.00
2019-02-17T02:32:57.576Z,2.90
2019-02-17T02:35:27.952Z,2.90
2019-02-17T02:37:58.393Z,2.90
2019-02-17T02:40:29.078Z,2.90
2019-02-17T02:42:59.926Z,2.90
2019-02-17T02:45:30.898Z,2.90
2019-02-17T02:48:01.621Z,2.90
2019-02-17T02:50:32.256Z,2.80
2019-02-17T02:53:02.946Z,2.80
2019-02-17T02:55:33.405Z,2.80
2019-02-17T02:58:03.848Z,2.70
2019-02-17T03:00:34.698Z,2.80
2019-02-17T03:03:05.154Z,2.70
2019-02-17T03:05:37.507Z,2.70
2019-02-17T03:08:07.982Z,2.70
2019-02-17T03:10:38.493Z,2.60
2019-02-17T03:13:09.046Z,2.60
2019-02-17T03:15:39.496Z,2.50
2019-02-17T03:18:09.957Z,2.50
2019-02-17T03:20:40.399Z,2.50
2019-02-17T03:23:10.858Z,2.50
2019-02-17T03:25:41.284Z,2.50
2019-02-17T03:28:12.050Z,2.40
2019-02-17T03:30:42.796Z,2.40
2019-02-17T03:33:13.246Z,2.50
2019-02-17T03:35:44.589Z,2.50
2019-02-17T03:38:15.215Z,2.60
2019-02-17T03:40:45.658Z,2.60
2019-02-17T03:43:16.100Z,2.60
2019-02-17T03:45:46.568Z,2.70
2019-02-17T03:48:17.028Z,2.70
2019-02-17T03:50:47.766Z,2.70
2019-02-17T03:53:18.240Z,2.70
2019-02-17T03:55:51.734Z,2.80
2019-02-17T03:58:22.440Z,2.80
2019-02-17T04:00:53.198Z,2.80
2019-02-17T04:03:23.685Z,2.90
2019-02-17T04:05:54.421Z,3.10
2019-02-17T04:08:24.898Z,3.20
2019-02-17T04:10:55.378Z,3.20
2019-02-17T04:13:25.836Z,3.20
2019-02-17T04:15:56.425Z,3.30
2019-02-17T04:18:26.982Z,3.30
2019-02-17T04:20:57.767Z,3.30
2019-02-17T04:23:31.605Z,3.30
2019-02-17T04:26:00.392Z,3.30
2019-02-17T04:28:31.309Z,3.30
2019-02-17T04:31:01.751Z,3.30
2019-02-17T04:33:32.545Z,3.20
2019-02-17T04:36:03.013Z,3.20
2019-02-17T04:38:33.456Z,3.10
2019-02-17T04:41:03.896Z,3.10
2019-02-17T04:43:34.353Z,3.00
2019-02-17T04:46:04.804Z,3.00
2019-02-17T04:48:35.261Z,3.00
2019-02-17T04:51:05.715Z,2.90
2019-02-17T04:53:36.205Z,2.90
2019-02-17T04:56:06.754Z,2.80
2019-02-17T04:58:37.287Z,2.80
2019-02-17T05:01:07.762Z,2.80
2019-02-17T05:03:38.429Z,2.70
2019-02-17T05:06:08.868Z,2.70
2019-02-17T05:08:39.341Z,2.60
2019-02-17T05:11:10.078Z,2.60
2019-02-17T05:13:40.499Z,2.60
2019-02-17T05:16:10.964Z,2.50
2019-02-17T05:18:41.411Z,2.50
2019-02-17T05:21:11.861Z,2.50
2019-02-17T05:23:42.325Z,2.40
2019-02-17T05:26:12.788Z,2.40
2019-02-17T05:28:43.700Z,2.40
2019-02-17T05:31:14.127Z,2.30
2019-02-17T05:33:44.573Z,2.30
2019-02-17T05:36:15.024Z,2.20
2019-02-17T05:38:45.718Z,2.20
2019-02-17T05:41:16.521Z,2.20
2019-02-17T05:43:46.966Z,2.10
2019-02-17T05:46:17.691Z,2.10
2019-02-17T05:48:48.713Z,2.00
2019-02-17T05:51:19.148Z,2.00
2019-02-17T05:53:49.980Z,2.00
2019-02-17T05:56:21.099Z,2.00
2019-02-17T05:58:51.568Z,2.00
2019-02-17T06:01:22.018Z,1.90
2019-02-17T06:03:52.491Z,1.90
2019-02-17T06:06:22.920Z,1.90
2019-02-17T06:08:53.976Z,1.90
2019-02-17T06:11:24.453Z,1.90
2019-02-17T06:13:55.330Z,1.90
2019-02-17T06:16:25.783Z,1.80
2019-02-17T06:18:56.228Z,1.80
2019-02-17T06:21:26.662Z,1.80
2019-02-17T06:23:57.129Z,1.80
2019-02-17T06:26:27.568Z,1.80
2019-02-17T06:28:58.052Z,1.80
2019-02-17T06:31:28.476Z,1.80
2019-02-17T06:33:58.929Z,1.80
2019-02-17T06:36:29.364Z,1.80
2019-02-17T06:38:59.806Z,1.80
2019-02-17T06:41:30.225Z,1.80
2019-02-17T06:44:00.673Z,1.80
2019-02-17T06:46:36.369Z,1.80
2019-02-17T06:49:06.844Z,1.80
2019-02-17T06:51:37.282Z,1.80
2019-02-17T06:54:07.749Z,1.80
2019-02-17T06:56:57.249Z,1.80
2019-02-17T06:59:27.805Z,1.80
2019-02-17T07:01:58.625Z,1.90
2019-02-17T07:04:47.221Z,1.90
2019-02-17T07:07:17.964Z,1.90
2019-02-17T07:09:48.449Z,2.00
2019-02-17T07:12:19.222Z,2.00
2019-02-17T07:14:49.672Z,2.00
2019-02-17T07:17:20.463Z,2.10
2019-02-17T07:19:51.217Z,2.10
2019-02-17T07:22:21.665Z,2.10
2019-02-17T07:24:52.107Z,2.20
2019-02-17T07:27:23.140Z,2.20
2019-02-17T07:29:54.725Z,2.20
2019-02-17T07:32:25.161Z,2.30
2019-02-17T07:34:55.637Z,2.40
2019-02-17T07:37:33.479Z,2.50
2019-02-17T07:39:59.049Z,2.60
2019-02-17T07:42:29.493Z,2.60
2019-02-17T07:44:59.937Z,2.70
2019-02-17T07:47:30.383Z,2.80
2019-02-17T07:50:00.846Z,2.90
2019-02-17T07:52:31.320Z,2.90
2019-02-17T07:55:02.059Z,3.00
2019-02-17T07:57:32.498Z,3.10
2019-02-17T08:00:03.062Z,3.10
2019-02-17T08:02:33.512Z,3.10
2019-02-17T08:05:04.034Z,3.20
2019-02-17T08:07:34.493Z,3.30
2019-02-17T08:10:05.229Z,3.40
2019-02-17T08:12:35.676Z,3.50
2019-02-17T08:15:07.334Z,3.60
2019-02-17T08:17:37.930Z,3.70
2019-02-17T08:20:09.305Z,3.80
2019-02-17T08:22:40.089Z,3.90
2019-02-17T08:25:20.985Z,4.10
2019-02-17T08:27:42.764Z,4.20
2019-02-17T08:30:13.527Z,4.30
2019-02-17T08:32:44.317Z,4.50
2019-02-17T08:35:14.913Z,4.60
2019-02-17T08:37:45.373Z,4.70
2019-02-17T08:40:16.015Z,4.80
2019-02-17T08:42:46.455Z,4.90
2019-02-17T08:45:28.861Z,5.00
2019-02-17T08:47:59.321Z,5.10
2019-02-17T08:50:29.817Z,5.20
2019-02-17T08:53:00.393Z,5.30
2019-02-17T08:55:30.951Z,5.40
2019-02-17T08:58:01.464Z,5.60
2019-02-17T09:00:31.921Z,5.80
2019-02-17T09:03:02.361Z,5.90
2019-02-17T09:05:32.897Z,6.00
2019-02-17T09:08:04.072Z,6.10
2019-02-17T09:10:34.692Z,6.30
2019-02-17T09:13:05.200Z,6.40
2019-02-17T09:15:35.709Z,6.60
2019-02-17T09:18:06.167Z,6.70
2019-02-17T09:20:36.611Z,6.80
2019-02-17T09:23:07.100Z,6.90
2019-02-17T09:25:37.564Z,7.10
2019-02-17T09:28:07.998Z,7.20
2019-02-17T09:30:38.471Z,7.30
2019-02-17T09:33:08.935Z,7.50
2019-02-17T09:35:39.426Z,7.60
2019-02-17T09:38:10.254Z,7.70
2019-02-17T09:40:40.762Z,7.80
2019-02-17T09:43:11.278Z,7.90
2019-02-17T09:45:41.790Z,8.10
2019-02-17T09:48:12.329Z,8.20
2019-02-17T09:50:42.796Z,8.40
2019-02-17T09:53:13.669Z,8.50
2019-02-17T09:55:44.185Z,8.60
2019-02-17T09:58:14.717Z,8.70
2019-02-17T10:00:45.227Z,8.90
2019-02-17T10:03:15.850Z,9.10
2019-02-17T10:05:46.431Z,9.20
2019-02-17T10:08:16.906Z,9.40
2019-02-17T10:10:47.344Z,9.60
2019-02-17T10:13:17.824Z,9.70
2019-02-17T10:15:48.256Z,9.80
2019-02-17T10:18:18.740Z,10.00
2019-02-17T10:20:49.518Z,10.10
2019-02-17T10:23:19.969Z,10.20
2019-02-17T10:25:50.428Z,10.40
2019-02-17T10:28:20.893Z,10.50
2019-02-17T10:30:51.397Z,10.70
2019-02-17T10:33:21.866Z,10.90
2019-02-17T10:35:52.326Z,11.10
2019-02-17T10:38:23.225Z,11.30
2019-02-17T10:40:53.693Z,11.60
2019-02-17T10:43:24.218Z,11.90
2019-02-17T10:45:54.731Z,12.30
2019-02-17T10:48:25.160Z,12.70
2019-02-17T10:50:55.665Z,12.90
2019-02-17T10:53:26.265Z,13.10
2019-02-17T10:55:56.710Z,13.50
2019-02-17T10:58:27.176Z,13.90
2019-02-17T11:00:57.626Z,14.70
2019-02-17T11:03:28.477Z,15.50
2019-02-17T11:05:58.979Z,16.40
2019-02-17T11:08:29.521Z,17.30
2019-02-17T11:11:00.298Z,18.10
2019-02-17T11:13:31.161Z,18.70
2019-02-17T11:16:01.938Z,19.30
2019-02-17T11:18:32.490Z,19.90
2019-02-17T11:21:03.029Z,20.40
2019-02-17T11:23:33.798Z,20.70
2019-02-17T11:26:04.236Z,21.00
2019-02-17T11:28:34.708Z,21.40
2019-02-17T11:31:05.149Z,21.70
2019-02-17T11:33:36.005Z,22.00
2019-02-17T11:36:06.482Z,22.40
2019-02-17T11:38:36.962Z,22.70
2019-02-17T11:41:07.873Z,23.00
2019-02-17T11:43:39.445Z,23.30
2019-02-17T11:46:09.950Z,23.50
2019-02-17T11:48:40.407Z,23.30
2019-02-17T11:51:11.252Z,23.30
2019-02-17T11:53:41.730Z,23.30
2019-02-17T11:56:12.733Z,23.20
2019-02-17T11:58:43.287Z,23.30
2019-02-17T12:01:13.821Z,23.40
2019-02-17T12:03:44.281Z,23.60
2019-02-17T12:06:14.896Z,23.90
2019-02-17T12:08:49.102Z,24.20
2019-02-17T12:11:19.558Z,24.40
2019-02-17T12:13:50.057Z,24.50
2019-02-17T12:16:20.636Z,24.50
2019-02-17T12:18:51.141Z,24.50
2019-02-17T12:21:53.102Z,24.60
2019-02-17T12:24:30.490Z,24.70
2019-02-17T12:27:26.229Z,24.60
2019-02-17T12:30:21.823Z,24.40
2019-02-17T12:32:52.395Z,24.60
2019-02-17T12:35:23.870Z,25.10
2019-02-17T12:37:54.441Z,25.20
2019-02-17T12:40:25.253Z,25.30
2019-02-17T12:42:55.747Z,25.30
2019-02-17T12:45:26.238Z,25.40
2019-02-17T12:47:58.387Z,25.50
2019-02-17T12:50:29.101Z,25.70
2019-02-17T12:53:00.542Z,25.90
2019-02-17T12:55:35.049Z,26.10
2019-02-17T12:58:05.502Z,26.20
2019-02-17T13:00:36.005Z,26.50
2019-02-17T13:03:06.889Z,26.60
2019-02-17T13:05:43.908Z,26.90
2019-02-17T13:08:14.349Z,27.20
2019-02-17T13:10:44.864Z,27.10
2019-02-17T13:13:15.313Z,27.10
2019-02-17T13:15:46.449Z,27.40
2019-02-17T13:18:16.900Z,27.60
2019-02-17T13:20:47.429Z,27.70
2019-02-17T13:23:18.461Z,28.00
2019-02-17T13:25:48.898Z,28.40
2019-02-17T13:28:19.381Z,28.40
2019-02-17T13:30:49.854Z,28.50
2019-02-17T13:33:20.405Z,28.50
2019-02-17T13:35:52.193Z,28.40
2019-02-17T13:38:22.669Z,28.10
2019-02-17T13:40:53.221Z,28.20
2019-02-17T13:43:23.724Z,28.50
2019-02-17T13:45:54.210Z,28.60
2019-02-17T13:48:24.676Z,28.70
2019-02-17T13:50:55.161Z,28.80
2019-02-17T13:53:26.089Z,28.70
2019-02-17T13:55:56.578Z,28.40
2019-02-17T13:58:27.304Z,28.00
2019-02-17T14:00:57.794Z,27.60
2019-02-17T14:03:28.242Z,27.00
2019-02-17T14:05:59.049Z,26.60
2019-02-17T14:08:31.335Z,26.20
2019-02-17T14:11:02.270Z,25.90
2019-02-17T14:13:32.711Z,25.60
2019-02-17T14:16:03.190Z,24.90
2019-02-17T14:18:33.970Z,23.90
2019-02-17T14:21:04.434Z,22.80
2019-02-17T14:23:34.917Z,21.80
2019-02-17T14:26:05.356Z,21.00
2019-02-17T14:28:35.905Z,20.20
2019-02-17T14:31:06.402Z,19.60
2019-02-17T14:33:36.894Z,19.00
2019-02-17T14:36:07.330Z,18.50
2019-02-17T14:38:37.812Z,18.10
2019-02-17T14:41:08.258Z,17.80
2019-02-17T14:43:39.391Z,17.60
2019-02-17T14:46:09.849Z,17.30
2019-02-17T14:48:40.299Z,17.10
2019-02-17T14:51:10.734Z,17.00
2019-02-17T14:53:41.556Z,17.00
2019-02-17T14:56:12.396Z,16.80
2019-02-17T14:58:42.862Z,16.60
2019-02-17T15:01:13.313Z,16.50
2019-02-17T15:03:44.121Z,16.30
2019-02-17T15:06:14.574Z,16.10
2019-02-17T15:08:45.367Z,16.00
2019-02-17T15:11:15.821Z,15.90
2019-02-17T15:13:46.604Z,15.90
2019-02-17T15:16:17.097Z,15.80
2019-02-17T15:18:47.635Z,15.70
2019-02-17T15:21:18.809Z,15.60
2019-02-17T15:23:49.758Z,15.50
2019-02-17T15:26:20.207Z,15.40
2019-02-17T15:28:51.556Z,15.30
2019-02-17T15:31:22.259Z,15.20
2019-02-17T15:33:53.030Z,15.20
2019-02-17T15:36:23.821Z,15.10
2019-02-17T15:38:54.306Z,15.00
2019-02-17T15:41:24.755Z,15.00
2019-02-17T15:43:55.527Z,14.90
2019-02-17T15:46:26.825Z,14.80
2019-02-17T15:48:57.637Z,14.80
2019-02-17T15:51:28.122Z,14.70
2019-02-17T15:53:58.944Z,14.60
2019-02-17T15:56:29.397Z,14.60
2019-02-17T15:58:59.838Z,14.50
2019-02-17T16:01:30.316Z,14.40
2019-02-17T16:04:01.689Z,14.30
2019-02-17T16:06:33.305Z,14.20
2019-02-17T16:09:05.440Z,14.10
2019-02-17T16:11:36.349Z,14.00
2019-02-17T16:14:06.801Z,13.90
2019-02-17T16:16:37.281Z,13.90
2019-02-17T16:19:07.738Z,13.80
2019-02-17T16:21:38.182Z,13.60
2019-02-17T16:24:09.041Z,13.50
2019-02-17T16:26:39.548Z,13.40
2019-02-17T16:29:10.285Z,13.30
2019-02-17T16:31:40.766Z,13.20
2019-02-17T16:34:11.285Z,13.00
2019-02-17T16:36:41.749Z,12.90
2019-02-17T16:39:15.238Z,12.80
2019-02-17T16:41:46.014Z,12.70
2019-02-17T16:44:16.477Z,12.60
2019-02-17T16:46:47.027Z,12.50
2019-02-17T16:49:17.713Z,12.30
2019-02-17T16:51:48.209Z,12.10
2019-02-17T16:54:18.726Z,12.00
2019-02-17T16:56:49.155Z,11.80
2019-02-17T16:59:19.654Z,11.80
2019-02-17T17:01:50.225Z,11.80
2019-02-17T17:04:20.638Z,11.70
2019-02-17T17:06:51.445Z,11.70
2019-02-17T17:09:22.620Z,11.60
2019-02-17T17:11:53.484Z,11.50
2019-02-17T17:14:23.917Z,11.40
2019-02-17T17:16:54.789Z,11.40
2019-02-17T17:19:25.230Z,11.30
2019-02-17T17:21:55.972Z,11.20
2019-02-17T17:24:26.428Z,11.10
2019-02-17T17:26:56.995Z,11.10
2019-02-17T17:29:27.440Z,11.10
2019-02-17T17:31:58.277Z,11.10
2019-02-17T17:34:28.959Z,11.10
2019-02-17T17:36:59.680Z,11.10
2019-02-17T17:39:30.149Z,11.10
2019-02-17T17:42:00.608Z,11.10
2019-02-17T17:44:31.077Z,11.00
2019-02-17T17:47:01.546Z,11.00
2019-02-17T17:49:32.100Z,10.90
2019-02-17T17:52:02.590Z,10.80
2019-02-17T17:54:33.085Z,10.70
2019-02-17T17:57:03.562Z,10.70
2019-02-17T17:59:34.027Z,10.70
2019-02-17T18:02:04.505Z,10.60
2019-02-17T18:04:34.976Z,10.60
2019-02-17T18:07:05.441Z,10.50
2019-02-17T18:09:35.945Z,10.50
2019-02-17T18:12:07.101Z,10.50
2019-02-17T18:14:37.618Z,10.30
2019-02-17T18:17:08.099Z,10.20
2019-02-17T18:19:38.568Z,10.10
2019-02-17T18:22:09.036Z,10.00
2019-02-17T18:24:39.555Z,9.90
2019-02-17T18:27:10.108Z,9.80
2019-02-17T18:29:40.656Z,9.70
2019-02-17T18:32:11.112Z,9.60
2019-02-17T18:34:41.589Z,9.50
2019-02-17T18:37:12.129Z,9.30
2019-02-17T18:39:43.005Z,9.20
2019-02-17T18:42:13.481Z,9.10
2019-02-17T18:44:44.013Z,9.00
2019-02-17T18:47:14.512Z,8.90
2019-02-17T18:49:44.957Z,8.80
2019-02-17T18:52:15.384Z,8.70
2019-02-17T18:54:45.887Z,8.60
2019-02-17T18:57:16.460Z,8.60
2019-02-17T18:59:47.236Z,8.50
2019-02-17T19:02:17.764Z,8.50
2019-02-17T19:04:48.570Z,8.40
2019-02-17T19:07:19.057Z,8.30
2019-02-17T19:09:49.550Z,8.20
2019-02-17T19:12:20.036Z,8.20
2019-02-17T19:14:50.625Z,8.10
2019-02-17T19:17:21.068Z,8.00
2019-02-17T19:19:51.550Z,7.90
2019-02-17T19:22:22.009Z,7.90
2019-02-17T19:24:52.487Z,7.80
2019-02-17T19:27:23.742Z,7.80
2019-02-17T19:30:10.596Z,7.70
2019-02-17T19:32:41.559Z,7.70
2019-02-17T19:35:12.757Z,7.60
2019-02-17T19:37:43.256Z,7.60
2019-02-17T19:40:13.744Z,7.50
2019-02-17T19:42:44.207Z,7.40
2019-02-17T19:45:14.678Z,7.30
2019-02-17T19:47:45.118Z,7.20
2019-02-17T19:50:15.591Z,7.20
2019-02-17T19:52:46.153Z,7.20
2019-02-17T19:55:16.586Z,7.10
2019-02-17T19:57:47.067Z,7.10
2019-02-17T20:00:17.592Z,7.10
2019-02-17T20:02:55.092Z,7.10
2019-02-17T20:05:27.413Z,7.10
2019-02-17T20:07:58.252Z,7.00
2019-02-17T20:10:28.698Z,7.00
2019-02-17T20:12:59.153Z,7.00
2019-02-17T20:15:31.325Z,6.90
2019-02-17T20:18:01.798Z,6.80
2019-02-17T20:20:33.371Z,6.70
2019-02-17T20:23:03.840Z,6.70
2019-02-17T20:25:34.384Z,6.70
2019-02-17T20:28:05.361Z,6.60
2019-02-17T20:30:35.869Z,6.60
2019-02-17T20:33:06.544Z,6.50
2019-02-17T20:35:37.014Z,6.50
2019-02-17T20:38:07.610Z,6.40
2019-02-17T20:40:38.261Z,6.40
2019-02-17T20:43:09.928Z,6.30
2019-02-17T20:45:41.034Z,6.20
2019-02-17T20:48:11.552Z,6.20
2019-02-17T20:50:42.068Z,6.10
2019-02-17T20:53:13.254Z,6.10
2019-02-17T20:55:43.841Z,6.10
2019-02-17T20:58:14.342Z,6.00
2019-02-17T21:00:44.880Z,6.00
2019-02-17T21:03:15.361Z,5.90
2019-02-17T21:05:45.856Z,6.00
2019-02-17T21:08:19.401Z,5.90
2019-02-17T21:10:50.003Z,5.90
2019-02-17T21:13:20.553Z,5.80
2019-02-17T21:15:51.121Z,5.80
2019-02-17T21:18:21.608Z,5.80
2019-02-17T21:20:52.433Z,5.70
2019-02-17T21:23:23.754Z,5.70
2019-02-17T21:25:54.260Z,5.70
2019-02-17T21:28:24.734Z,5.70
2019-02-17T21:30:55.226Z,5.60
2019-02-17T21:33:25.707Z,5.60
2019-02-17T21:35:56.230Z,5.50
2019-02-17T21:38:26.689Z,5.50
2019-02-17T21:40:57.597Z,5.50
2019-02-17T21:43:28.559Z,5.50
2019-02-17T21:45:59.002Z,5.50
2019-02-17T21:48:29.480Z,5.50
2019-02-17T21:50:59.965Z,5.40
2019-02-17T21:53:30.523Z,5.40
2019-02-17T21:56:01.000Z,5.40
2019-02-17T21:58:31.937Z,5.30
2019-02-17T22:01:03.286Z,5.30
2019-02-17T22:03:34.048Z,5.20
2019-02-17T22:06:04.840Z,5.20
2019-02-17T22:08:35.297Z,5.10
2019-02-17T22:11:05.921Z,5.10
2019-02-17T22:13:36.560Z,5.10
2019-02-17T22:16:07.280Z,5.10
2019-02-17T22:18:37.916Z,5.00
2019-02-17T22:21:08.404Z,5.00
2019-02-17T22:23:40.046Z,5.00
2019-02-17T22:26:11.159Z,4.90
2019-02-17T22:28:42.672Z,4.80
2019-02-17T22:31:13.461Z,4.80
2019-02-17T22:33:44.032Z,4.70
2019-02-17T22:36:14.862Z,4.70
2019-02-17T22:38:45.965Z,4.70
2019-02-17T22:41:16.678Z,4.70
2019-02-17T22:43:48.343Z,4.70
2019-02-17T22:46:18.851Z,4.60
2019-02-17T22:48:49.416Z,4.60
2019-02-17T22:51:19.948Z,4.60
2019-02-17T22:53:50.453Z,4.60
2019-02-17T22:56:21.218Z,4.50
2019-02-17T22:58:51.738Z,4.50
2019-02-17T23:01:27.940Z,4.50
2019-02-17T23:03:58.596Z,4.50
2019-02-17T23:06:29.272Z,4.40
2019-02-17T23:09:00.212Z,4.40
2019-02-17T23:11:31.065Z,4.40
2019-02-17T23:14:04.265Z,4.30
2019-02-17T23:16:34.477Z,4.30
2019-02-17T23:19:05.041Z,4.20
2019-02-17T23:21:35.816Z,4.20
2019-02-17T23:24:06.252Z,4.20
2019-02-17T23:26:36.736Z,4.20
2019-02-17T23:29:07.793Z,4.20
2019-02-17T23:31:38.245Z,4.10
2019-02-17T23:34:09.024Z,4.10
2019-02-17T23:36:39.473Z,4.10
2019-02-17T23:39:10.220Z,4.10
2019-02-17T23:41:40.701Z,4.00
2019-02-17T23:44:11.540Z,4.00
2019-02-17T23:46:41.998Z,4.00
2019-02-17T23:49:12.737Z,3.90
2019-02-17T23:51:43.504Z,3.90
2019-02-17T23:54:13.956Z,3.90
2019-02-17T23:56:44.446Z,3.90
2019-02-17T23:59:14.900Z,3.90
